Ana Sayfa
METAR-TAF:

METAR-TAF

Havaalanları :

Harbin Taiping Uluslararası Havalimanı

Harbin, Çin

Enlem: 45-45N, Boylam: 126-46E, yükseklik: 143 m

Güncel hava durumu gözlemi

Rapor saat 16:00 UTC de 41 dakika önce yapıldı.
Rüzgar güney/güneybatıdan 4 kt
Sıcaklık 17°C
Nem 27%
Basınç 1010 hPa
Görüş mesafesi 10 km veya daha fazla
1500 m altında bulut yok ve kümülonimbus yok

METAR: ZYHB 211600Z 20002MPS CAVOK 17/M02 Q1010 NOSIG

Saat: 00:41 (16:41 UTC)

Tahmin

Rapor saat 09:06 UTC de 7 saat ve 35 dakika önce yapıldı.
Ayın 21'si saat 12 UTC'den ayın 22'si saat 12 UTC'ye kadar geçerli Tahmin
Rüzgar güneybatıdan 10 kt ve 21 kt'a kadar ani rüzgarlar
Görüş mesafesi: 6000 m
3300 ft yükseklikte parçalı bulutlu
Geçici
ayın 22'si saat 01 UTC'den ayın 22'si saat 07 UTC'ye kadar
Rüzgar güneybatıdan 23 kt ve 33 kt'a kadar ani rüzgarlar

TAF: ZYHB 210906Z 2112/2212 22005G11MPS 6000 SCT033 TX26/2206Z TN15/2121Z TEMPO 2201/2207 23012G17MPS

4.000'den fazla havaalanı için hava durumu gözlemleri ve tahminleri (METAR ve TAF raporları).

Kullanılabilir istasyonlar harita üzerinde sarı ve kırmızı noktalarla gösterilir.

İstasyonun adını görmek için fareyi noktanın üzerinde gezdirin.

Sonrasında hava gözlem ve tahminlerini görmek için tıklayın.

Haritayı değiştirmek için: yaklaştırmak için siyah artı işaretli yeşil düğmeye ve uzaklaştırmak için de eksi işaretli düğmeye hızla tıklayın; bitişik haritalar için yeşil okları kullanın.


METAR-TAF: